Time;durP1;ratioP1;P1;durP2;ratioP2;P2;SDS_P1;SDS_P2;PMS_P1;PMS_P2;Temp;Humidity;BMP_temperature;BMP_pressure;BME280_temperature;BME280_humidity;BME280_pressure;Samples;Min_cycle;Max_cycle;Signal;HPM_P1;HPM_P2
2022/01/26 00:06:17;;;;;;;;;;;20.00;42.40;;;;;;5053586;28;20007;-43
2022/01/26 00:08:46;;;;;;;;;;;20.10;42.40;;;;;;5098676;27;19976;-45
2022/01/26 00:11:13;;;;;;;;;;;20.10;42.40;;;;;;5115731;27;19932;-46
2022/01/26 00:13:40;;;;;;;;;;;20.10;42.50;;;;;;5111975;27;19931;-47
2022/01/26 00:16:12;;;;;;;;;;;20.00;42.40;;;;;;5134533;27;19980;-45
2022/01/26 00:18:39;;;;;;;;;;;20.10;42.50;;;;;;5114538;27;19941;-43
2022/01/26 00:21:08;;;;;;;;;;;20.10;42.40;;;;;;5117701;27;20358;-43
2022/01/26 00:23:52;;;;;;;;;;;20.10;42.40;;;;;;5116059;27;19938;-47
2022/01/26 00:26:30;;;;;;;;;;;20.00;42.40;;;;;;5121647;27;19989;-45
2022/01/26 00:29:10;;;;;;;;;;;20.10;43.00;;;;;;5115865;27;19932;-44
2022/01/26 00:39:52;;;;;;;;;;;20.00;42.30;;;;;;5111941;27;19930;-45
2022/01/26 00:42:21;;;;;;;;;;;20.00;42.30;;;;;;5119306;27;20272;-43
2022/01/26 00:44:49;;;;;;;;;;;20.00;42.30;;;;;;5116556;27;19919;-43
2022/01/26 00:47:16;;;;;;;;;;;20.10;42.30;;;;;;5112482;27;19997;-43
2022/01/26 00:49:43;;;;;;;;;;;20.00;42.30;;;;;;5116139;27;19979;-43
2022/01/26 00:52:13;;;;;;;;;;;20.10;42.30;;;;;;5134176;27;19919;-43
2022/01/26 00:54:40;;;;;;;;;;;20.10;42.30;;;;;;5132066;27;19931;-44
2022/01/26 00:57:07;;;;;;;;;;;20.00;42.30;;;;;;5118149;27;19972;-43
2022/01/26 00:59:35;;;;;;;;;;;20.00;42.30;;;;;;5114846;27;20014;-43
2022/01/26 01:02:02;;;;;;;;;;;20.00;42.30;;;;;;5110101;27;19930;-44
2022/01/26 01:04:29;;;;;;;;;;;20.10;42.30;;;;;;5097033;27;19919;-42
2022/01/26 01:06:59;;;;;;;;;;;20.00;42.30;;;;;;5115001;27;19919;-45
2022/01/26 01:09:31;;;;;;;;;;;20.00;42.20;;;;;;5112011;27;19920;-44
2022/01/26 01:11:58;;;;;;;;;;;20.00;42.20;;;;;;5132816;27;20304;-43
2022/01/26 01:14:24;;;;;;;;;;;20.00;42.20;;;;;;5113547;27;20420;-46
2022/01/26 01:16:56;;;;;;;;;;;20.00;42.20;;;;;;5116591;27;20279;-45
2022/01/26 01:19:35;;;;;;;;;;;20.00;42.20;;;;;;5112451;27;19958;-44
2022/01/26 01:30:35;;;;;;;;;;;20.00;42.10;;;;;;5107000;27;19931;-47
2022/01/26 01:33:09;;;;;;;;;;;20.00;42.10;;;;;;5113356;27;19944;-48
2022/01/26 01:35:37;;;;;;;;;;;20.00;42.10;;;;;;5111826;27;19920;-44
2022/01/26 01:38:09;;;;;;;;;;;20.00;42.10;;;;;;5111330;27;19930;-49
2022/01/26 01:40:36;;;;;;;;;;;20.00;42.10;;;;;;5112741;27;19931;-43
2022/01/26 01:43:03;;;;;;;;;;;20.00;42.10;;;;;;5113198;27;19926;-44
2022/01/26 01:45:31;;;;;;;;;;;20.00;42.10;;;;;;5113035;27;19959;-45
2022/01/26 01:47:58;;;;;;;;;;;20.00;42.10;;;;;;5128695;27;19923;-45
2022/01/26 01:50:26;;;;;;;;;;;20.00;42.10;;;;;;5112658;27;20407;-48
2022/01/26 01:52:59;;;;;;;;;;;20.00;42.10;;;;;;5112621;27;19966;-44
2022/01/26 01:55:28;;;;;;;;;;;20.00;42.10;;;;;;5109614;27;19941;-48
2022/01/26 01:57:54;;;;;;;;;;;20.00;42.10;;;;;;5113017;27;19919;-44
2022/01/26 02:00:21;;;;;;;;;;;20.00;42.10;;;;;;5128471;27;20014;-49
2022/01/26 02:02:48;;;;;;;;;;;20.00;42.10;;;;;;5133194;27;19919;-46
2022/01/26 02:05:15;;;;;;;;;;;20.00;42.10;;;;;;5131231;27;19923;-45
2022/01/26 02:07:43;;;;;;;;;;;20.00;42.10;;;;;;5113543;27;19923;-47
2022/01/26 02:10:10;;;;;;;;;;;20.00;42.10;;;;;;5112195;27;20373;-43
2022/01/26 02:12:41;;;;;;;;;;;20.00;42.00;;;;;;5110213;28;19919;-49
2022/01/26 02:15:13;;;;;;;;;;;20.00;42.10;;;;;;5130816;27;19930;-47
2022/01/26 02:18:07;;;;;;;;;;;20.00;42.00;;;;;;5113355;28;19920;-45
2022/01/26 02:56:27;;;;;;;;;;;20.00;41.90;;;;;;5126399;28;19927;-50
2022/01/26 03:04:29;;;;;;;;;;;20.00;41.90;;;;;;5108551;28;19923;-44
2022/01/26 03:07:02;;;;;;;;;;;20.00;41.90;;;;;;5112891;28;19938;-44
2022/01/26 03:09:35;;;;;;;;;;;20.00;41.90;;;;;;5131234;27;19958;-42
2022/01/26 03:12:03;;;;;;;;;;;20.00;41.90;;;;;;5145082;27;19949;-43
2022/01/26 03:14:46;;;;;;;;;;;20.00;41.90;;;;;;5118114;27;19920;-44
2022/01/26 03:17:24;;;;;;;;;;;20.00;41.90;;;;;;5114979;27;19949;-43
2022/01/26 03:19:52;;;;;;;;;;;20.00;41.90;;;;;;5113021;27;19934;-44
2022/01/26 03:30:50;;;;;;;;;;;20.00;41.90;;;;;;5146159;27;19958;-44
2022/01/26 03:33:35;;;;;;;;;;;20.00;41.90;;;;;;5117042;27;20041;-43
2022/01/26 03:36:10;;;;;;;;;;;20.00;41.90;;;;;;5146656;27;19924;-44
2022/01/26 03:38:42;;;;;;;;;;;20.00;41.80;;;;;;5153322;27;19967;-43
2022/01/26 03:41:16;;;;;;;;;;;20.00;41.90;;;;;;5113828;27;20071;-44
2022/01/26 03:43:43;;;;;;;;;;;20.00;41.80;;;;;;5149890;27;19972;-46
2022/01/26 03:46:10;;;;;;;;;;;20.00;41.80;;;;;;5114304;27;19919;-45
2022/01/26 03:48:37;;;;;;;;;;;20.00;41.80;;;;;;5114501;27;19919;-45
2022/01/26 03:51:03;;;;;;;;;;;20.00;41.90;;;;;;5110375;27;20007;-45
2022/01/26 03:53:30;;;;;;;;;;;20.00;41.80;;;;;;5114662;27;19926;-44
2022/01/26 03:55:57;;;;;;;;;;;20.00;42.40;;;;;;5151923;27;19924;-49
2022/01/26 03:58:25;;;;;;;;;;;20.00;41.80;;;;;;5130570;27;20010;-46
2022/01/26 04:00:52;;;;;;;;;;;20.00;41.80;;;;;;5134583;27;19980;-46
2022/01/26 04:03:19;;;;;;;;;;;20.00;41.80;;;;;;5134003;27;20321;-45
2022/01/26 04:05:45;;;;;;;;;;;20.00;41.80;;;;;;5117071;27;19923;-43
2022/01/26 04:08:17;;;;;;;;;;;20.00;41.80;;;;;;5114872;27;19975;-43
2022/01/26 04:10:55;;;;;;;;;;;20.00;41.80;;;;;;5119925;27;19919;-44
2022/01/26 04:13:22;;;;;;;;;;;20.00;41.80;;;;;;5115009;27;19919;-43
2022/01/26 04:15:50;;;;;;;;;;;20.00;41.70;;;;;;5136218;27;20280;-45
2022/01/26 04:18:22;;;;;;;;;;;20.00;41.80;;;;;;5114430;27;19942;-48
2022/01/26 04:20:53;;;;;;;;;;;20.00;41.80;;;;;;5112707;27;19935;-43
2022/01/26 04:23:26;;;;;;;;;;;20.00;41.70;;;;;;5114276;27;19926;-47
2022/01/26 04:25:54;;;;;;;;;;;20.00;41.80;;;;;;5114847;27;19927;-46
2022/01/26 04:28:26;;;;;;;;;;;20.00;41.80;;;;;;5113284;27;20368;-43
2022/01/26 04:30:55;;;;;;;;;;;20.00;41.80;;;;;;5115901;27;19955;-45
2022/01/26 04:33:21;;;;;;;;;;;20.00;41.70;;;;;;5114995;27;19927;-46
2022/01/26 04:35:48;;;;;;;;;;;20.00;41.70;;;;;;5130969;27;19931;-46
2022/01/26 04:38:21;;;;;;;;;;;19.90;41.60;;;;;;5114825;27;19957;-43
2022/01/26 04:40:58;;;;;;;;;;;19.90;41.60;;;;;;5112655;27;20000;-46
2022/01/26 04:43:29;;;;;;;;;;;20.00;41.70;;;;;;5109918;27;19930;-48
2022/01/26 04:45:57;;;;;;;;;;;20.00;41.70;;;;;;5132993;27;19920;-47
2022/01/26 04:48:25;;;;;;;;;;;20.00;41.70;;;;;;5105576;27;19976;-44
2022/01/26 04:50:52;;;;;;;;;;;20.00;41.70;;;;;;5133712;27;19923;-45
2022/01/26 04:53:19;;;;;;;;;;;20.00;41.70;;;;;;5112007;27;20002;-45
2022/01/26 04:55:45;;;;;;;;;;;20.00;41.70;;;;;;5089506;27;19926;-49
2022/01/26 04:58:12;;;;;;;;;;;19.90;41.60;;;;;;5113263;27;19968;-45
2022/01/26 05:00:38;;;;;;;;;;;20.00;41.60;;;;;;5116409;27;19919;-43
2022/01/26 05:03:06;;;;;;;;;;;19.90;41.60;;;;;;5114116;27;20330;-45
2022/01/26 05:05:33;;;;;;;;;;;20.00;41.60;;;;;;5115056;27;19926;-44
2022/01/26 05:08:00;;;;;;;;;;;19.90;41.50;;;;;;5115068;27;20006;-49
2022/01/26 05:10:27;;;;;;;;;;;19.90;41.50;;;;;;5110150;27;19919;-45
2022/01/26 05:12:54;;;;;;;;;;;19.90;41.50;;;;;;5115339;27;19919;-45
2022/01/26 05:15:23;;;;;;;;;;;20.00;41.60;;;;;;5110180;27;20257;-43
2022/01/26 05:17:49;;;;;;;;;;;20.00;41.60;;;;;;5114039;27;19920;-43
2022/01/26 05:20:18;;;;;;;;;;;19.90;41.50;;;;;;5112682;27;20195;-44
2022/01/26 05:22:45;;;;;;;;;;;20.00;41.60;;;;;;5128704;27;19972;-44
2022/01/26 05:25:12;;;;;;;;;;;20.00;41.60;;;;;;5111155;27;20326;-46
2022/01/26 05:27:38;;;;;;;;;;;19.90;41.50;;;;;;5115351;27;19926;-44
2022/01/26 05:30:06;;;;;;;;;;;20.00;41.60;;;;;;5109789;27;20237;-46
2022/01/26 05:32:33;;;;;;;;;;;20.00;41.50;;;;;;5115511;27;20039;-46
2022/01/26 05:35:00;;;;;;;;;;;20.00;41.50;;;;;;5128457;27;20366;-48
2022/01/26 05:37:29;;;;;;;;;;;19.90;41.40;;;;;;5114445;27;20374;-47
2022/01/26 05:39:55;;;;;;;;;;;19.90;41.40;;;;;;5112624;27;19923;-46
2022/01/26 05:42:22;;;;;;;;;;;20.00;41.50;;;;;;5113999;27;19926;-43
2022/01/26 05:44:49;;;;;;;;;;;19.90;41.40;;;;;;5112528;27;20109;-48
2022/01/26 05:47:19;;;;;;;;;;;20.00;41.50;;;;;;5118850;27;19924;-43
2022/01/26 05:49:46;;;;;;;;;;;20.00;41.50;;;;;;5126692;27;19969;-43
2022/01/26 05:52:13;;;;;;;;;;;20.00;42.10;;;;;;5114563;27;19923;-46
2022/01/26 05:54:41;;;;;;;;;;;20.00;41.50;;;;;;5111431;27;19923;-45
2022/01/26 05:57:08;;;;;;;;;;;19.90;41.40;;;;;;5130871;27;19946;-47
2022/01/26 05:59:34;;;;;;;;;;;19.90;41.40;;;;;;5108932;27;20014;-45
2022/01/26 06:02:01;;;;;;;;;;;20.00;41.50;;;;;;5111884;27;19972;-45
2022/01/26 06:04:28;;;;;;;;;;;20.00;41.50;;;;;;5113367;27;19920;-46
2022/01/26 06:06:57;;;;;;;;;;;19.90;41.40;;;;;;5129157;27;20035;-44
2022/01/26 06:09:23;;;;;;;;;;;20.00;41.40;;;;;;5113738;28;19973;-45
2022/01/26 06:11:51;;;;;;;;;;;19.90;41.30;;;;;;5112122;27;19926;-49
2022/01/26 06:14:18;;;;;;;;;;;20.00;41.40;;;;;;5146791;27;20275;-45
2022/01/26 06:16:45;;;;;;;;;;;19.90;41.30;;;;;;5130569;27;19920;-44
2022/01/26 06:19:12;;;;;;;;;;;19.90;41.40;;;;;;5112805;28;19919;-44
2022/01/26 06:21:39;;;;;;;;;;;19.90;41.30;;;;;;5112816;28;19980;-47
2022/01/26 06:24:06;;;;;;;;;;;19.90;41.30;;;;;;5127045;28;20439;-45
2022/01/26 06:26:34;;;;;;;;;;;19.90;41.30;;;;;;5121335;28;19931;-42
2022/01/26 06:29:02;;;;;;;;;;;19.90;41.30;;;;;;5126269;28;20020;-46
2022/01/26 06:31:29;;;;;;;;;;;20.00;41.40;;;;;;5111022;28;19959;-45
2022/01/26 06:34:02;;;;;;;;;;;19.90;41.30;;;;;;5123942;28;19985;-46
2022/01/26 06:36:28;;;;;;;;;;;19.90;41.30;;;;;;5132765;28;19958;-44
2022/01/26 06:38:55;;;;;;;;;;;19.90;41.30;;;;;;5125966;28;19919;-47
2022/01/26 06:41:23;;;;;;;;;;;19.90;41.30;;;;;;5102407;28;19923;-47
2022/01/26 06:43:55;;;;;;;;;;;19.90;41.30;;;;;;5136624;27;19923;-44
2022/01/26 06:46:30;;;;;;;;;;;19.90;41.30;;;;;;5138678;27;20388;-45
2022/01/26 06:49:28;;;;;;;;;;;19.90;41.30;;;;;;5120965;27;20392;-46
2022/01/26 06:51:50;;;;;;;;;;;20.00;41.40;;;;;;5116764;27;19926;-44
2022/01/26 06:54:17;;;;;;;;;;;19.90;41.30;;;;;;5128058;27;20038;-45
2022/01/26 06:56:45;;;;;;;;;;;19.90;41.20;;;;;;5125955;27;19943;-43
2022/01/26 06:59:11;;;;;;;;;;;19.90;41.30;;;;;;5130111;27;20228;-45
2022/01/26 07:01:39;;;;;;;;;;;19.90;41.30;;;;;;5118364;27;19965;-42
2022/01/26 07:04:06;;;;;;;;;;;19.90;41.20;;;;;;5110595;27;19919;-45
2022/01/26 07:06:33;;;;;;;;;;;19.90;41.20;;;;;;5132587;27;19937;-43
2022/01/26 07:09:00;;;;;;;;;;;19.90;41.20;;;;;;5112555;27;19943;-48
2022/01/26 07:11:27;;;;;;;;;;;19.90;41.20;;;;;;5110611;27;19919;-45
2022/01/26 07:13:57;;;;;;;;;;;19.90;41.20;;;;;;5112624;27;19976;-46
2022/01/26 07:21:54;;;;;;;;;;;19.90;41.20;;;;;;5133366;27;19935;-44
2022/01/26 07:24:20;;;;;;;;;;;19.90;41.20;;;;;;5116773;27;19958;-42
2022/01/26 07:26:52;;;;;;;;;;;19.90;41.20;;;;;;5115273;27;19951;-49
2022/01/26 07:29:23;;;;;;;;;;;19.90;41.20;;;;;;5114529;27;19971;-45
2022/01/26 07:31:50;;;;;;;;;;;19.90;41.20;;;;;;5109829;27;19920;-45
2022/01/26 07:34:20;;;;;;;;;;;19.90;41.20;;;;;;5114874;27;20328;-46
2022/01/26 07:36:51;;;;;;;;;;;19.90;41.20;;;;;;5112393;27;19924;-50
2022/01/26 07:39:29;;;;;;;;;;;19.90;41.20;;;;;;5116908;27;19964;-43
2022/01/26 07:41:55;;;;;;;;;;;19.90;41.20;;;;;;5116140;27;19919;-47
2022/01/26 07:44:22;;;;;;;;;;;19.90;41.20;;;;;;5116134;27;20112;-43
2022/01/26 07:46:49;;;;;;;;;;;20.00;41.30;;;;;;5116290;27;19946;-47
2022/01/26 07:49:16;;;;;;;;;;;19.90;41.20;;;;;;5117313;27;20010;-44
2022/01/26 07:51:47;;;;;;;;;;;20.00;41.30;;;;;;5127506;27;19931;-45
2022/01/26 07:54:15;;;;;;;;;;;20.00;41.30;;;;;;5113851;27;19924;-43
2022/01/26 07:56:43;;;;;;;;;;;19.90;41.20;;;;;;5104305;27;19935;-47
2022/01/26 07:59:10;;;;;;;;;;;19.90;41.20;;;;;;5143736;27;19932;-51
2022/01/26 08:01:37;;;;;;;;;;;19.90;40.90;;;;;;5110632;27;19927;-51
2022/01/26 08:04:04;;;;;;;;;;;20.00;40.40;;;;;;5112760;27;20010;-49
2022/01/26 08:06:31;;;;;;;;;;;19.90;40.00;;;;;;5111296;27;19919;-50
2022/01/26 08:08:59;;;;;;;;;;;19.90;39.80;;;;;;5110363;27;19919;-47
2022/01/26 08:11:27;;;;;;;;;;;19.90;39.40;;;;;;5128511;27;19961;-47
2022/01/26 08:13:54;;;;;;;;;;;19.90;39.40;;;;;;5109464;27;19931;-45
2022/01/26 08:16:21;;;;;;;;;;;19.90;39.40;;;;;;5129911;27;20299;-53
2022/01/26 08:18:47;;;;;;;;;;;19.80;39.30;;;;;;5110043;27;19980;-48
2022/01/26 08:21:15;;;;;;;;;;;19.80;39.50;;;;;;5110698;27;19933;-48
2022/01/26 08:23:44;;;;;;;;;;;19.80;39.50;;;;;;5108875;27;19966;-48
2022/01/26 08:26:13;;;;;;;;;;;19.80;39.60;;;;;;5109661;27;19919;-50
2022/01/26 08:28:44;;;;;;;;;;;19.80;39.40;;;;;;5108407;27;19955;-48
2022/01/26 08:31:12;;;;;;;;;;;19.80;39.50;;;;;;5110095;27;20010;-48
2022/01/26 08:33:39;;;;;;;;;;;19.80;39.40;;;;;;5109237;27;20364;-47
2022/01/26 08:36:06;;;;;;;;;;;19.80;39.40;;;;;;5111135;27;20407;-51
2022/01/26 08:38:33;;;;;;;;;;;19.80;39.40;;;;;;5127807;27;19923;-50
2022/01/26 08:41:00;;;;;;;;;;;19.80;39.30;;;;;;5110350;27;19920;-50
2022/01/26 08:43:29;;;;;;;;;;;19.80;39.20;;;;;;5110375;27;20013;-51
2022/01/26 08:45:55;;;;;;;;;;;19.80;39.10;;;;;;5089073;27;19919;-45
2022/01/26 08:48:23;;;;;;;;;;;19.80;39.10;;;;;;5110710;27;19923;-50
2022/01/26 08:50:50;;;;;;;;;;;19.80;39.10;;;;;;5111721;27;19919;-50
2022/01/26 08:53:16;;;;;;;;;;;19.70;38.90;;;;;;5110755;27;19933;-51
2022/01/26 08:55:43;;;;;;;;;;;19.70;38.80;;;;;;5110050;27;19945;-46
2022/01/26 08:58:10;;;;;;;;;;;19.70;38.70;;;;;;5109634;27;19984;-47
2022/01/26 09:00:39;;;;;;;;;;;19.70;38.80;;;;;;5109994;27;19968;-48
2022/01/26 09:03:06;;;;;;;;;;;19.70;38.70;;;;;;5110527;27;20348;-48
2022/01/26 09:05:33;;;;;;;;;;;19.70;38.60;;;;;;5110268;27;20016;-49
2022/01/26 09:08:00;;;;;;;;;;;19.70;38.50;;;;;;5130357;27;19977;-47
2022/01/26 09:10:29;;;;;;;;;;;19.60;38.40;;;;;;5126842;27;20393;-47
2022/01/26 09:12:55;;;;;;;;;;;19.70;38.40;;;;;;5111205;27;19927;-47
2022/01/26 09:15:27;;;;;;;;;;;19.70;38.40;;;;;;5111961;27;19920;-48
2022/01/26 09:17:56;;;;;;;;;;;19.70;38.40;;;;;;5109637;27;19935;-49
2022/01/26 09:20:23;;;;;;;;;;;19.70;38.50;;;;;;5139709;27;19919;-47
2022/01/26 09:22:49;;;;;;;;;;;19.60;38.60;;;;;;5126341;27;20022;-48
2022/01/26 09:25:16;;;;;;;;;;;19.60;38.40;;;;;;5142827;27;19923;-47
2022/01/26 09:27:43;;;;;;;;;;;19.60;38.20;;;;;;5142740;27;19934;-50
2022/01/26 09:30:10;;;;;;;;;;;19.60;38.00;;;;;;5109750;27;19948;-48
2022/01/26 09:32:37;;;;;;;;;;;19.60;37.90;;;;;;5107202;27;20421;-47
2022/01/26 09:35:06;;;;;;;;;;;19.60;37.70;;;;;;5107430;27;19919;-46
2022/01/26 09:37:33;;;;;;;;;;;19.60;37.60;;;;;;5123496;27;19937;-48
2022/01/26 09:40:00;;;;;;;;;;;19.60;37.40;;;;;;5108606;27;20321;-49
2022/01/26 09:42:27;;;;;;;;;;;19.60;37.40;;;;;;5107150;27;20520;-45
2022/01/26 09:44:54;;;;;;;;;;;19.60;37.20;;;;;;5105624;27;19925;-50
2022/01/26 09:47:21;;;;;;;;;;;19.60;37.20;;;;;;5108259;27;19919;-52
2022/01/26 09:49:49;;;;;;;;;;;19.60;37.00;;;;;;5126561;27;20380;-44
2022/01/26 09:52:22;;;;;;;;;;;19.60;36.90;;;;;;5108130;27;19926;-48
2022/01/26 09:54:49;;;;;;;;;;;19.50;37.10;;;;;;5111026;27;19954;-43
2022/01/26 09:57:17;;;;;;;;;;;19.50;37.30;;;;;;5130949;27;19931;-46
2022/01/26 09:59:43;;;;;;;;;;;19.50;37.40;;;;;;5105624;27;19929;-46
2022/01/26 10:02:20;;;;;;;;;;;19.50;37.50;;;;;;5112900;27;20344;-45
2022/01/26 10:04:46;;;;;;;;;;;19.50;37.60;;;;;;5112911;27;20169;-42
2022/01/26 10:07:20;;;;;;;;;;;19.50;37.70;;;;;;5105452;28;20340;-44
2022/01/26 10:15:44;;;;;;;;;;;19.60;38.10;;;;;;5128694;27;19927;-44
2022/01/26 10:18:14;;;;;;;;;;;19.60;38.20;;;;;;5110298;28;19956;-48
2022/01/26 10:20:42;;;;;;;;;;;19.60;38.40;;;;;;5104905;28;20372;-44
2022/01/26 10:23:09;;;;;;;;;;;19.60;38.40;;;;;;5107023;28;20003;-44
2022/01/26 10:25:37;;;;;;;;;;;19.60;38.50;;;;;;5127360;28;19926;-46
2022/01/26 10:28:04;;;;;;;;;;;19.60;38.60;;;;;;5109472;28;19989;-49
2022/01/26 10:30:31;;;;;;;;;;;19.70;38.70;;;;;;5109564;28;20016;-46
2022/01/26 10:32:58;;;;;;;;;;;19.70;38.70;;;;;;5127538;28;19920;-47
2022/01/26 10:35:24;;;;;;;;;;;19.70;38.80;;;;;;5124523;28;20158;-47
2022/01/26 10:37:53;;;;;;;;;;;19.70;38.80;;;;;;5110041;28;20010;-46
2022/01/26 10:40:22;;;;;;;;;;;19.70;38.90;;;;;;5108479;28;20018;-44
2022/01/26 10:42:57;;;;;;;;;;;19.70;38.90;;;;;;5110520;28;20308;-49
2022/01/26 10:48:32;;;;;;;;;;;19.70;39.00;;;;;;5107267;28;19990;-45
2022/01/26 10:53:57;;;;;;;;;;;19.80;39.10;;;;;;5112596;28;19919;-43
2022/01/26 10:56:24;;;;;;;;;;;19.80;39.20;;;;;;5104194;28;19968;-42
2022/01/26 10:58:52;;;;;;;;;;;19.80;39.20;;;;;;5107370;28;19927;-43
2022/01/26 11:01:19;;;;;;;;;;;19.80;39.30;;;;;;5107794;28;19998;-46
2022/01/26 11:03:46;;;;;;;;;;;19.80;39.30;;;;;;5089960;28;19979;-50
2022/01/26 11:06:17;;;;;;;;;;;19.80;39.30;;;;;;5142691;27;20004;-46
2022/01/26 11:08:44;;;;;;;;;;;19.80;39.40;;;;;;5106253;28;19919;-45
2022/01/26 11:11:18;;;;;;;;;;;19.80;39.40;;;;;;5124932;28;20344;-45
2022/01/26 11:13:45;;;;;;;;;;;19.90;39.50;;;;;;5123338;28;19919;-49
2022/01/26 11:16:15;;;;;;;;;;;19.90;39.50;;;;;;5125172;28;20368;-49
2022/01/26 11:18:45;;;;;;;;;;;19.90;39.50;;;;;;5106232;28;19919;-47
2022/01/26 11:21:16;;;;;;;;;;;19.90;39.60;;;;;;5109099;28;19950;-46
2022/01/26 11:23:43;;;;;;;;;;;19.90;39.60;;;;;;5107825;28;20030;-53
2022/01/26 11:26:21;;;;;;;;;;;19.90;39.60;;;;;;5107436;28;20356;-48
2022/01/26 11:28:48;;;;;;;;;;;19.90;39.60;;;;;;5126682;28;19924;-47
2022/01/26 11:31:17;;;;;;;;;;;19.90;39.60;;;;;;5107874;27;20396;-49
2022/01/26 11:33:44;;;;;;;;;;;19.90;39.60;;;;;;5112707;27;19926;-46
2022/01/26 11:36:14;;;;;;;;;;;19.90;39.70;;;;;;5133251;27;19919;-48
2022/01/26 11:42:13;;;;;;;;;;;19.90;39.70;;;;;;5109499;27;19925;-48
2022/01/26 11:42:19;;;;;;;;;;;19.90;39.70;;;;;;5128447;27;19919;-46
2022/01/26 11:45:07;;;;;;;;;;;20.00;39.90;;;;;;5110842;27;19995;-47
2022/01/26 11:47:35;;;;;;;;;;;19.90;39.70;;;;;;5111647;27;20013;-45
2022/01/26 11:50:04;;;;;;;;;;;20.00;39.90;;;;;;5111109;27;20284;-50
2022/01/26 11:52:35;;;;;;;;;;;20.00;39.90;;;;;;5113105;27;20030;-46
2022/01/26 11:55:02;;;;;;;;;;;20.00;39.90;;;;;;5110264;27;19923;-45
2022/01/26 11:57:37;;;;;;;;;;;20.00;39.90;;;;;;5110339;27;19923;-44
2022/01/26 12:00:06;;;;;;;;;;;20.00;39.90;;;;;;5110090;27;20268;-47
2022/01/26 12:02:49;;;;;;;;;;;20.00;40.00;;;;;;5126374;27;19930;-46
2022/01/26 12:05:18;;;;;;;;;;;20.00;40.00;;;;;;5110917;27;19927;-44
2022/01/26 12:07:48;;;;;;;;;;;20.00;40.00;;;;;;5112909;27;19929;-44
2022/01/26 12:10:23;;;;;;;;;;;20.00;40.00;;;;;;5122305;27;19959;-44
2022/01/26 12:13:00;;;;;;;;;;;20.00;40.00;;;;;;5145498;27;19945;-49
2022/01/26 12:15:27;;;;;;;;;;;20.00;40.00;;;;;;5109972;27;19930;-52
2022/01/26 12:18:12;;;;;;;;;;;20.00;40.00;;;;;;5124441;27;20307;-46
2022/01/26 12:34:58;;;;;;;;;;;20.00;40.10;;;;;;5106971;27;19919;-49
2022/01/26 12:37:38;;;;;;;;;;;20.00;40.10;;;;;;5109099;27;20372;-45
2022/01/26 12:43:03;;;;;;;;;;;20.00;40.20;;;;;;5114759;27;19919;-45
2022/01/26 12:45:30;;;;;;;;;;;20.00;40.40;;;;;;5111736;27;19919;-47
2022/01/26 12:47:57;;;;;;;;;;;20.00;40.20;;;;;;5112335;27;19935;-49
2022/01/26 12:50:26;;;;;;;;;;;20.10;40.30;;;;;;5112205;27;19970;-44
2022/01/26 12:52:53;;;;;;;;;;;20.00;40.20;;;;;;5111082;27;19919;-47
2022/01/26 12:55:21;;;;;;;;;;;20.10;40.30;;;;;;5112822;27;19926;-45
2022/01/26 12:57:48;;;;;;;;;;;20.10;40.30;;;;;;5113188;27;19920;-49
2022/01/26 13:00:15;;;;;;;;;;;20.10;40.40;;;;;;5112903;27;19930;-46
2022/01/26 13:02:42;;;;;;;;;;;20.10;40.40;;;;;;5127619;27;19973;-45
2022/01/26 13:05:10;;;;;;;;;;;20.10;40.40;;;;;;5112694;27;19987;-46
2022/01/26 13:07:38;;;;;;;;;;;20.10;40.40;;;;;;5112282;27;19919;-47
2022/01/26 13:10:13;;;;;;;;;;;20.10;40.50;;;;;;5109139;27;19954;-49
2022/01/26 13:12:40;;;;;;;;;;;20.10;40.50;;;;;;5111203;27;19930;-43
2022/01/26 13:15:13;;;;;;;;;;;20.10;40.50;;;;;;5111479;27;19927;-47
2022/01/26 13:17:45;;;;;;;;;;;20.10;40.50;;;;;;5111262;27;19923;-46
2022/01/26 13:20:24;;;;;;;;;;;20.10;40.50;;;;;;5112652;27;19934;-46
2022/01/26 13:23:03;;;;;;;;;;;20.10;40.50;;;;;;5108642;27;19923;-45
2022/01/26 13:25:40;;;;;;;;;;;20.20;40.60;;;;;;5096211;27;19937;-48
2022/01/26 13:34:08;;;;;;;;;;;20.10;40.60;;;;;;5109883;27;19981;-48
2022/01/26 13:36:50;;;;;;;;;;;20.20;40.80;;;;;;5105888;27;20252;-44
2022/01/26 13:39:34;;;;;;;;;;;20.20;40.70;;;;;;5107446;27;19942;-44
2022/01/26 13:45:22;;;;;;;;;;;20.20;40.70;;;;;;5109396;27;20300;-48
2022/01/26 13:50:39;;;;;;;;;;;20.20;40.80;;;;;;5110513;27;19919;-43
2022/01/26 13:53:09;;;;;;;;;;;20.20;40.80;;;;;;5110654;27;20128;-48
2022/01/26 14:01:04;;;;;;;;;;;20.20;40.90;;;;;;5108361;27;19919;-44
2022/01/26 14:03:34;;;;;;;;;;;20.20;40.90;;;;;;5114474;27;19919;-46
2022/01/26 14:06:01;;;;;;;;;;;20.20;40.90;;;;;;5097539;27;19919;-51
2022/01/26 14:08:27;;;;;;;;;;;20.20;40.90;;;;;;5128539;27;19966;-53
2022/01/26 14:10:57;;;;;;;;;;;20.20;40.80;;;;;;5099438;27;19959;-46
2022/01/26 14:13:25;;;;;;;;;;;20.20;40.60;;;;;;5107589;27;20021;-48
2022/01/26 14:15:55;;;;;;;;;;;20.20;40.40;;;;;;5108787;28;20268;-46
2022/01/26 14:24:12;;;;;;;;;;;20.20;39.90;;;;;;5076569;28;19924;-49
2022/01/26 14:26:42;;;;;;;;;;;20.10;39.60;;;;;;5117716;28;19988;-45
2022/01/26 14:29:18;;;;;;;;;;;20.10;39.40;;;;;;5127596;28;19930;-45
2022/01/26 14:32:07;;;;;;;;;;;20.10;39.30;;;;;;5106134;28;19923;-47
2022/01/26 14:35:12;;;;;;;;;;;20.10;39.10;;;;;;5098737;28;19919;-46
2022/01/26 15:19:28;;;;;;;;;;;19.80;38.00;;;;;;5112105;27;19939;-48
2022/01/26 15:30:18;;;;;;;;;;;19.70;37.90;;;;;;5121433;27;19927;-45
2022/01/26 15:35:52;;;;;;;;;;;19.70;37.80;;;;;;5114155;27;20340;-51
2022/01/26 15:41:25;;;;;;;;;;;19.70;37.80;;;;;;5048192;27;19942;-46
2022/01/26 15:44:06;;;;;;;;;;;19.60;37.80;;;;;;5111834;27;20033;-48
2022/01/26 15:57:56;;;;;;;;;;;19.60;37.60;;;;;;5110632;27;19951;-51
2022/01/26 16:06:03;;;;;;;;;;;19.60;37.60;;;;;;5125395;27;19942;-47
2022/01/26 16:12:40;;;;;;;;;;;19.60;37.60;;;;;;5093327;27;20356;-46
2022/01/26 16:17:12;;;;;;;;;;;19.50;37.60;;;;;;5128604;27;19926;-49
2022/01/26 16:19:57;;;;;;;;;;;19.50;37.60;;;;;;5108464;27;19919;-46
2022/01/26 16:38:56;;;;;;;;;;;19.50;38.20;;;;;;5106199;28;20476;-47
2022/01/26 16:52:26;;;;;;;;;;;19.50;38.20;;;;;;5131215;27;19934;-50
2022/01/26 17:43:13;;;;;;;;;;;19.50;38.10;;;;;;5115510;27;20148;-49
2022/01/26 18:13:52;;;;;;;;;;;19.60;39.10;;;;;;5116898;28;19935;-45
2022/01/26 18:16:20;;;;;;;;;;;19.60;39.10;;;;;;5110038;27;19980;-43
2022/01/26 18:31:45;;;;;;;;;;;19.70;39.30;;;;;;5104234;28;19923;-46
2022/01/26 18:32:45;;;;;;;;;;;19.70;39.30;;;;;;5130637;27;20010;-49
2022/01/26 18:49:17;;;;;;;;;;;19.80;39.50;;;;;;5127474;27;19923;-48
2022/01/26 18:51:48;;;;;;;;;;;19.80;39.60;;;;;;5132737;27;20272;-44
2022/01/26 18:54:15;;;;;;;;;;;19.80;39.60;;;;;;5114563;27;19968;-50
2022/01/26 18:56:44;;;;;;;;;;;19.80;39.60;;;;;;5153562;27;19930;-50
2022/01/26 18:59:11;;;;;;;;;;;19.80;39.60;;;;;;5119481;27;19919;-46
2022/01/26 19:01:38;;;;;;;;;;;19.80;39.60;;;;;;5118183;27;20388;-45
2022/01/26 19:04:05;;;;;;;;;;;19.80;39.70;;;;;;5145833;27;19920;-46
2022/01/26 19:06:33;;;;;;;;;;;19.80;39.60;;;;;;5117294;27;19930;-47
2022/01/26 19:09:02;;;;;;;;;;;19.80;39.60;;;;;;5120227;27;19986;-46
2022/01/26 19:11:29;;;;;;;;;;;19.80;39.70;;;;;;5111875;27;19992;-48
2022/01/26 19:13:56;;;;;;;;;;;19.80;39.80;;;;;;5119683;27;20450;-46
2022/01/26 19:16:33;;;;;;;;;;;19.80;39.90;;;;;;5115832;27;19919;-49
2022/01/26 19:19:09;;;;;;;;;;;19.90;40.00;;;;;;5114408;27;20237;-46
2022/01/26 19:24:43;;;;;;;;;;;19.90;40.30;;;;;;5133317;27;20291;-46
2022/01/26 19:27:19;;;;;;;;;;;19.90;40.40;;;;;;5103533;28;19924;-45
2022/01/26 19:30:25;;;;;;;;;;;19.90;40.40;;;;;;5122507;27;19924;-46
2022/01/26 19:32:57;;;;;;;;;;;19.90;40.40;;;;;;5125226;27;19920;-45
2022/01/26 19:46:38;;;;;;;;;;;19.90;40.60;;;;;;5118821;27;19919;-46
2022/01/26 19:52:06;;;;;;;;;;;20.00;40.60;;;;;;5122299;27;20369;-45
2022/01/26 19:54:33;;;;;;;;;;;20.00;40.70;;;;;;5137549;27;19927;-44
2022/01/26 19:57:03;;;;;;;;;;;20.00;40.70;;;;;;5109194;27;20014;-48
2022/01/26 19:59:32;;;;;;;;;;;20.00;40.90;;;;;;5114166;27;19938;-44
2022/01/26 20:02:02;;;;;;;;;;;20.00;40.90;;;;;;5118251;27;19929;-46
2022/01/26 20:04:34;;;;;;;;;;;20.00;40.90;;;;;;5115769;27;19924;-43
2022/01/26 20:07:06;;;;;;;;;;;20.00;40.90;;;;;;5114793;27;19919;-42
2022/01/26 20:09:38;;;;;;;;;;;20.00;41.00;;;;;;5114466;27;19968;-45
2022/01/26 20:12:18;;;;;;;;;;;20.00;41.00;;;;;;5136138;27;19920;-46
2022/01/26 20:14:47;;;;;;;;;;;20.00;41.10;;;;;;5116281;27;20293;-46
2022/01/26 20:17:15;;;;;;;;;;;20.00;41.10;;;;;;5116736;27;19919;-51
2022/01/26 20:19:43;;;;;;;;;;;20.00;41.20;;;;;;5120055;27;20013;-43
2022/01/26 20:22:11;;;;;;;;;;;20.00;41.20;;;;;;5112720;27;19920;-45
2022/01/26 20:24:39;;;;;;;;;;;20.10;41.30;;;;;;5123622;27;20364;-47
2022/01/26 20:27:10;;;;;;;;;;;20.10;41.30;;;;;;5123932;27;19931;-45